createdAt,value
2019-02-15T00:00:37.274Z,16.27
2019-02-15T00:03:05.478Z,14.00
2019-02-15T00:05:33.599Z,13.90
2019-02-15T00:07:59.800Z,12.57
2019-02-15T00:10:26.046Z,11.33
2019-02-15T00:12:52.396Z,14.43
2019-02-15T00:15:18.633Z,13.13
2019-02-15T00:17:52.754Z,14.50
2019-02-15T00:20:20.955Z,13.30
2019-02-15T00:22:47.179Z,13.43
2019-02-15T00:25:13.380Z,16.50
2019-02-15T00:27:39.619Z,12.33
2019-02-15T00:30:08.753Z,15.57
2019-02-15T00:32:35.039Z,17.60
2019-02-15T00:35:01.399Z,14.57
2019-02-15T00:37:27.588Z,15.53
2019-02-15T00:39:53.791Z,17.80
2019-02-15T00:42:20.002Z,17.13
2019-02-15T00:44:46.215Z,18.40
2019-02-15T00:47:31.000Z,12.30
2019-02-15T00:49:59.173Z,15.30
2019-02-15T00:52:27.411Z,14.47
2019-02-15T00:54:55.507Z,14.20
2019-02-15T00:57:23.606Z,17.00
2019-02-15T00:59:54.516Z,17.90
2019-02-15T01:02:25.331Z,18.50
2019-02-15T01:04:56.163Z,15.30
2019-02-15T01:07:36.146Z,21.17
2019-02-15T01:10:21.224Z,22.53
2019-02-15T01:12:49.298Z,18.50
2019-02-15T01:15:15.524Z,18.37
2019-02-15T01:17:41.716Z,19.53
2019-02-15T01:20:08.047Z,21.30
2019-02-15T01:22:34.250Z,17.47
2019-02-15T01:25:00.560Z,19.03
2019-02-15T01:27:31.418Z,16.60
2019-02-15T01:30:05.406Z,16.77
2019-02-15T01:32:51.691Z,16.00
2019-02-15T01:35:22.559Z,15.40
2019-02-15T01:37:50.672Z,13.83
2019-02-15T01:40:30.875Z,17.73
2019-02-15T01:43:02.078Z,18.57
2019-02-15T01:45:30.322Z,18.27
2019-02-15T01:47:56.601Z,14.90
2019-02-15T01:50:22.853Z,21.10
2019-02-15T01:52:49.064Z,17.40
2019-02-15T01:55:15.263Z,14.53
2019-02-15T01:57:41.502Z,16.53
2019-02-15T02:00:11.107Z,13.23
2019-02-15T02:02:37.306Z,14.30
2019-02-15T02:05:03.715Z,14.87
2019-02-15T02:07:29.998Z,13.93
2019-02-15T02:09:56.211Z,15.73
2019-02-15T02:12:22.463Z,13.07
2019-02-15T02:14:48.762Z,17.33
2019-02-15T02:17:14.984Z,16.53
2019-02-15T02:19:41.195Z,18.60
2019-02-15T02:22:07.579Z,18.03
2019-02-15T02:24:33.892Z,14.30
2019-02-15T02:27:00.099Z,17.73
2019-02-15T02:29:26.553Z,16.53
2019-02-15T02:31:52.774Z,17.80
2019-02-15T02:34:19.157Z,21.17
2019-02-15T02:36:48.237Z,20.30
2019-02-15T02:39:14.539Z,17.80
2019-02-15T02:41:40.853Z,22.13
2019-02-15T02:44:07.042Z,17.73
2019-02-15T02:46:33.281Z,14.93
2019-02-15T02:48:59.460Z,18.93
2019-02-15T02:51:25.667Z,14.57
2019-02-15T02:53:52.021Z,22.13
2019-02-15T02:56:18.288Z,17.53
2019-02-15T02:58:44.487Z,18.80
2019-02-15T03:01:10.799Z,19.07
2019-02-15T03:03:37.028Z,17.27
2019-02-15T03:06:03.215Z,15.10
2019-02-15T03:08:29.446Z,16.67
2019-02-15T03:10:57.551Z,16.73
2019-02-15T03:13:23.747Z,19.70
2019-02-15T03:15:49.951Z,23.13
2019-02-15T03:18:17.416Z,22.30
2019-02-15T03:20:43.595Z,21.13
2019-02-15T03:23:09.827Z,24.70
2019-02-15T03:25:36.038Z,23.77
2019-02-15T03:28:02.330Z,25.47
2019-02-15T03:30:28.555Z,23.20
2019-02-15T03:32:54.861Z,23.17
2019-02-15T03:35:21.151Z,24.43
2019-02-15T03:38:01.411Z,20.33
2019-02-15T03:40:29.699Z,26.50
2019-02-15T03:42:56.065Z,26.20
2019-02-15T03:45:22.295Z,24.00
2019-02-15T03:47:48.583Z,23.47
2019-02-15T03:50:14.886Z,20.57
2019-02-15T03:52:41.174Z,21.10
2019-02-15T03:55:07.588Z,20.93
2019-02-15T03:57:33.907Z,18.83
2019-02-15T04:00:00.406Z,19.97
2019-02-15T04:02:26.861Z,21.23
2019-02-15T04:04:53.086Z,19.27
2019-02-15T04:07:19.374Z,22.90
2019-02-15T04:09:45.568Z,24.83
2019-02-15T04:12:11.911Z,22.57
2019-02-15T04:14:38.187Z,15.77
2019-02-15T04:17:04.454Z,17.87
2019-02-15T04:19:30.659Z,16.53
2019-02-15T04:21:56.869Z,15.90
2019-02-15T04:24:23.073Z,16.53
2019-02-15T04:26:49.429Z,13.50
2019-02-15T04:29:15.660Z,14.40
2019-02-15T04:31:41.962Z,19.20
2019-02-15T04:34:08.145Z,18.83
2019-02-15T04:36:34.488Z,16.13
2019-02-15T04:39:00.765Z,12.53
2019-02-15T04:41:27.033Z,16.83
2019-02-15T04:43:53.235Z,15.97
2019-02-15T04:46:19.424Z,12.57
2019-02-15T04:48:45.632Z,15.07
2019-02-15T04:51:11.827Z,16.60
2019-02-15T04:53:38.212Z,14.93
2019-02-15T04:56:04.504Z,12.83
2019-02-15T04:58:30.781Z,11.83
2019-02-15T05:00:57.020Z,12.40
2019-02-15T05:03:23.262Z,14.00
2019-02-15T05:05:49.560Z,9.63
2019-02-15T05:08:15.785Z,12.13
2019-02-15T05:10:41.992Z,11.57
2019-02-15T05:13:08.337Z,12.97
2019-02-15T05:15:34.527Z,11.07
2019-02-15T05:18:00.730Z,11.40
2019-02-15T05:20:27.059Z,11.53
2019-02-15T05:22:53.352Z,10.33
2019-02-15T05:25:19.549Z,14.83
2019-02-15T05:27:45.762Z,9.80
2019-02-15T05:30:12.088Z,13.50
2019-02-15T05:32:38.298Z,11.00
2019-02-15T05:35:04.594Z,10.50
2019-02-15T05:37:30.804Z,10.70
2019-02-15T05:39:57.080Z,11.90
2019-02-15T05:42:23.331Z,10.33
2019-02-15T05:44:49.548Z,15.43
2019-02-15T05:47:15.734Z,13.43
2019-02-15T05:49:41.977Z,10.70
2019-02-15T05:52:08.360Z,11.00
2019-02-15T05:54:34.553Z,10.33
2019-02-15T05:57:00.789Z,11.83
2019-02-15T05:59:27.018Z,12.77
2019-02-15T06:01:53.298Z,18.30
2019-02-15T06:04:19.547Z,10.73
2019-02-15T06:06:45.738Z,11.87
2019-02-15T06:09:11.979Z,10.87
2019-02-15T06:11:38.390Z,10.80
2019-02-15T06:14:04.712Z,13.47
2019-02-15T06:16:31.016Z,13.07
2019-02-15T06:18:57.249Z,14.90
2019-02-15T06:21:23.544Z,12.90
2019-02-15T06:23:49.726Z,15.87
2019-02-15T06:26:15.944Z,13.07
2019-02-15T06:28:42.134Z,12.67
2019-02-15T06:31:08.355Z,14.10
2019-02-15T06:33:34.716Z,12.67
2019-02-15T06:36:02.216Z,13.37
2019-02-15T06:38:34.854Z,14.20
2019-02-15T06:40:56.560Z,12.33
2019-02-15T06:43:22.755Z,11.73
2019-02-15T06:45:48.973Z,15.77
2019-02-15T06:48:15.305Z,11.80
2019-02-15T06:50:42.377Z,12.40
2019-02-15T06:53:10.030Z,12.97
2019-02-15T06:55:36.606Z,12.30
2019-02-15T06:58:02.798Z,13.80
2019-02-15T07:00:33.764Z,14.07
2019-02-15T07:03:01.882Z,15.60
2019-02-15T07:05:28.358Z,14.87
2019-02-15T07:07:54.823Z,15.30
2019-02-15T07:10:21.226Z,15.53
2019-02-15T07:12:47.490Z,14.20
2019-02-15T07:15:13.818Z,11.13
2019-02-15T07:17:40.081Z,15.43
2019-02-15T07:20:08.246Z,16.00
2019-02-15T07:22:34.563Z,13.73
2019-02-15T07:25:00.755Z,16.73
2019-02-15T07:27:26.972Z,11.63
2019-02-15T07:29:53.183Z,16.07
2019-02-15T07:32:19.578Z,17.57
2019-02-15T07:34:45.805Z,14.20
2019-02-15T07:37:12.030Z,10.33
2019-02-15T07:39:38.334Z,11.83
2019-02-15T07:42:04.539Z,17.83
2019-02-15T07:44:30.845Z,11.33
2019-02-15T07:46:57.078Z,11.00
2019-02-15T07:49:26.758Z,10.30
2019-02-15T07:51:51.706Z,14.03
2019-02-15T07:54:17.925Z,11.03
2019-02-15T07:56:44.343Z,10.27
2019-02-15T07:59:10.522Z,10.43
2019-02-15T08:01:36.821Z,10.33
2019-02-15T08:04:03.219Z,12.93
2019-02-15T08:06:29.433Z,10.63
2019-02-15T08:08:55.655Z,15.90
2019-02-15T08:11:21.876Z,9.40
2019-02-15T08:13:48.202Z,14.83
2019-02-15T08:16:14.425Z,11.03
2019-02-15T08:18:40.639Z,8.90
2019-02-15T08:21:06.967Z,8.93
2019-02-15T08:23:33.286Z,7.07
2019-02-15T08:25:59.675Z,7.10
2019-02-15T08:28:25.876Z,8.50
2019-02-15T08:30:52.073Z,7.57
2019-02-15T08:33:18.371Z,9.17
2019-02-15T08:35:44.600Z,7.50
2019-02-15T08:38:10.805Z,6.27
2019-02-15T08:40:37.534Z,9.83
2019-02-15T08:43:03.831Z,7.20
2019-02-15T08:45:30.059Z,8.30
2019-02-15T08:47:56.273Z,7.23
2019-02-15T08:50:22.497Z,7.13
2019-02-15T08:52:48.713Z,7.33
2019-02-15T08:55:15.016Z,5.60
2019-02-15T08:57:41.278Z,7.60
2019-02-15T09:00:10.483Z,5.80
2019-02-15T09:02:36.700Z,6.17
2019-02-15T09:05:04.046Z,6.33
2019-02-15T09:07:30.265Z,8.40
2019-02-15T09:09:56.515Z,6.00
2019-02-15T09:12:22.950Z,8.53
2019-02-15T09:14:49.172Z,5.70
2019-02-15T09:17:15.426Z,6.07
2019-02-15T09:19:41.758Z,5.37
2019-02-15T09:22:08.069Z,5.20
2019-02-15T09:24:34.270Z,7.00
2019-02-15T09:27:02.439Z,21.87
2019-02-15T09:29:28.694Z,6.10
2019-02-15T09:31:55.058Z,4.47
2019-02-15T09:34:21.358Z,4.70
2019-02-15T09:36:47.577Z,5.30
2019-02-15T09:39:13.827Z,5.70
2019-02-15T09:41:40.055Z,10.57
2019-02-15T09:44:06.257Z,4.80
2019-02-15T09:46:32.489Z,28.70
2019-02-15T09:48:58.684Z,15.67
2019-02-15T09:51:25.094Z,11.50
2019-02-15T09:53:51.285Z,6.23
2019-02-15T09:56:17.512Z,9.00
2019-02-15T09:58:43.871Z,5.30
2019-02-15T10:01:10.071Z,5.50
2019-02-15T10:03:36.303Z,4.80
2019-02-15T10:06:02.603Z,6.60
2019-02-15T10:08:28.807Z,24.27
2019-02-15T10:10:55.018Z,10.47
2019-02-15T10:13:21.224Z,58.90
2019-02-15T10:15:47.487Z,26.00
2019-02-15T10:18:13.862Z,6.57
2019-02-15T10:20:40.067Z,5.83
2019-02-15T10:23:06.381Z,4.40
2019-02-15T10:25:32.686Z,4.33
2019-02-15T10:27:58.889Z,4.40
2019-02-15T10:30:25.120Z,4.40
2019-02-15T10:32:51.347Z,3.87
2019-02-15T10:35:17.698Z,3.83
2019-02-15T10:37:43.901Z,3.40
2019-02-15T10:40:10.268Z,3.40
2019-02-15T10:42:36.573Z,3.90
2019-02-15T10:45:06.611Z,4.40
2019-02-15T10:47:32.928Z,3.23
2019-02-15T10:50:00.804Z,3.20
2019-02-15T10:52:27.130Z,3.37
2019-02-15T10:54:53.457Z,3.10
2019-02-15T10:57:19.762Z,4.10
2019-02-15T10:59:45.990Z,6.43
2019-02-15T11:02:12.314Z,4.77
2019-02-15T11:04:38.539Z,6.87
2019-02-15T11:07:04.764Z,6.87
2019-02-15T11:09:31.151Z,5.90
2019-02-15T11:11:57.376Z,4.77
2019-02-15T11:14:23.721Z,5.20
2019-02-15T11:16:49.927Z,4.83
2019-02-15T11:19:16.141Z,3.80
2019-02-15T11:21:42.333Z,3.97
2019-02-15T11:24:08.555Z,5.10
2019-02-15T11:26:34.868Z,6.30
2019-02-15T11:29:01.070Z,6.80
2019-02-15T11:31:27.277Z,3.50
2019-02-15T11:33:53.499Z,5.13
2019-02-15T11:36:19.725Z,3.43
2019-02-15T11:38:46.015Z,3.53
2019-02-15T11:41:12.403Z,3.00
2019-02-15T11:43:38.624Z,2.63
2019-02-15T11:46:05.055Z,3.10
2019-02-15T11:48:31.335Z,2.00
2019-02-15T11:50:57.572Z,2.50
2019-02-15T11:53:23.773Z,2.03
2019-02-15T11:55:50.060Z,5.47
2019-02-15T11:58:16.285Z,6.30
2019-02-15T12:00:42.707Z,1.90
2019-02-15T12:03:09.000Z,2.37
2019-02-15T12:05:35.371Z,1.93
2019-02-15T12:08:01.634Z,1.80
2019-02-15T12:10:27.841Z,1.97
2019-02-15T12:12:54.079Z,1.53
2019-02-15T12:15:20.430Z,2.20
2019-02-15T12:17:46.682Z,3.80
2019-02-15T12:20:13.558Z,1.33
2019-02-15T12:22:39.766Z,1.70
2019-02-15T12:25:06.264Z,1.40
2019-02-15T12:27:32.470Z,1.40
2019-02-15T12:29:58.695Z,1.70
2019-02-15T12:32:25.005Z,2.67
2019-02-15T12:34:51.216Z,2.30
2019-02-15T12:37:17.448Z,1.77
2019-02-15T12:39:43.675Z,2.00
2019-02-15T12:42:09.916Z,1.60
2019-02-15T12:44:36.125Z,2.13
2019-02-15T12:47:02.353Z,1.40
2019-02-15T12:49:28.607Z,1.93
2019-02-15T12:51:54.894Z,1.40
2019-02-15T12:54:21.117Z,1.67
2019-02-15T12:56:47.435Z,1.63
2019-02-15T12:59:13.649Z,1.33
2019-02-15T13:01:39.952Z,2.00
2019-02-15T13:04:06.169Z,1.87
2019-02-15T13:06:32.572Z,2.50
2019-02-15T13:08:58.927Z,1.10
2019-02-15T13:11:25.145Z,1.33
2019-02-15T13:13:51.436Z,2.70
2019-02-15T13:16:17.776Z,1.20
2019-02-15T13:18:44.072Z,1.83
2019-02-15T13:21:10.324Z,1.40
2019-02-15T13:23:36.560Z,1.57
2019-02-15T13:26:08.451Z,3.63
2019-02-15T13:28:31.195Z,1.83
2019-02-15T13:30:57.416Z,7.67
2019-02-15T13:33:23.653Z,2.73
2019-02-15T13:35:49.973Z,1.57
2019-02-15T13:38:16.214Z,2.30
2019-02-15T13:40:42.561Z,1.10
2019-02-15T13:43:08.869Z,1.40
2019-02-15T13:45:35.197Z,2.97
2019-02-15T13:48:01.543Z,4.23
2019-02-15T13:50:28.048Z,1.27
2019-02-15T13:52:54.278Z,1.70
2019-02-15T13:55:20.600Z,2.47
2019-02-15T13:57:46.822Z,1.53
2019-02-15T14:00:13.652Z,3.47
2019-02-15T14:02:40.007Z,1.23
2019-02-15T14:05:09.666Z,1.53
2019-02-15T14:07:36.099Z,2.73
2019-02-15T14:10:03.106Z,1.53
2019-02-15T14:12:29.323Z,1.10
2019-02-15T14:14:55.524Z,2.07
2019-02-15T14:17:21.979Z,1.40
2019-02-15T14:19:48.278Z,1.23
2019-02-15T14:22:14.647Z,1.20
2019-02-15T14:24:40.917Z,1.83
2019-02-15T14:27:07.132Z,2.03
2019-02-15T14:29:33.494Z,1.57
2019-02-15T14:31:59.928Z,1.40
2019-02-15T14:34:26.247Z,1.43
2019-02-15T14:36:52.500Z,1.83
2019-02-15T14:39:19.067Z,4.30
2019-02-15T14:41:45.599Z,8.33
2019-02-15T14:44:11.916Z,3.93
2019-02-15T14:46:38.143Z,1.83
2019-02-15T14:49:04.492Z,1.23
2019-02-15T14:51:30.919Z,1.30
2019-02-15T14:53:57.148Z,2.90
2019-02-15T14:56:23.395Z,1.53
2019-02-15T14:58:49.603Z,1.27
2019-02-15T15:01:15.959Z,1.50
2019-02-15T15:03:42.393Z,1.60
2019-02-15T15:06:08.983Z,4.40
2019-02-15T15:08:35.284Z,2.67
2019-02-15T15:11:02.769Z,3.80
2019-02-15T15:13:29.320Z,9.20
2019-02-15T15:15:55.812Z,3.80
2019-02-15T15:18:22.357Z,3.47
2019-02-15T15:20:48.845Z,2.50
2019-02-15T15:23:15.587Z,1.20
2019-02-15T15:25:42.200Z,1.27
2019-02-15T15:28:08.728Z,1.60
2019-02-15T15:30:37.049Z,2.00
2019-02-15T15:33:03.809Z,2.43
2019-02-15T15:35:30.508Z,2.20
2019-02-15T15:37:57.098Z,2.60
2019-02-15T15:40:23.599Z,1.90
2019-02-15T15:42:50.032Z,2.53
2019-02-15T15:45:16.720Z,2.43
2019-02-15T15:47:43.274Z,3.40
2019-02-15T15:50:10.484Z,8.40
2019-02-15T15:52:36.819Z,11.53
2019-02-15T15:55:04.298Z,5.77
2019-02-15T15:57:30.701Z,19.83
2019-02-15T15:59:57.020Z,22.20
2019-02-15T16:02:23.488Z,43.33
2019-02-15T16:04:50.099Z,23.80
2019-02-15T16:07:16.799Z,14.30
2019-02-15T16:09:43.554Z,14.50
2019-02-15T16:12:10.072Z,18.33
2019-02-15T16:14:36.563Z,17.70
2019-02-15T16:17:09.329Z,12.63
2019-02-15T16:19:40.376Z,11.90
2019-02-15T16:22:04.151Z,13.10
2019-02-15T16:24:30.488Z,18.10
2019-02-15T16:26:56.845Z,18.07
2019-02-15T16:29:23.521Z,15.80
2019-02-15T16:31:50.116Z,15.37
2019-02-15T16:34:17.941Z,9.17
2019-02-15T16:36:44.663Z,9.33
2019-02-15T16:39:11.135Z,10.23
2019-02-15T16:41:37.509Z,9.80
2019-02-15T16:44:04.066Z,7.90
2019-02-15T16:46:30.668Z,8.83
2019-02-15T16:48:57.247Z,7.70
2019-02-15T16:51:23.917Z,6.60
2019-02-15T16:53:52.404Z,7.27
2019-02-15T16:56:18.874Z,13.63
2019-02-15T16:58:45.266Z,5.90
2019-02-15T17:01:12.005Z,7.20
2019-02-15T17:03:38.579Z,6.43
2019-02-15T17:06:04.918Z,5.70
2019-02-15T17:08:31.594Z,5.40
2019-02-15T17:10:58.170Z,4.53
2019-02-15T17:13:24.734Z,6.53
2019-02-15T17:15:51.215Z,11.90
2019-02-15T17:18:17.769Z,6.83
2019-02-15T17:20:44.212Z,6.63
2019-02-15T17:23:10.895Z,7.93
2019-02-15T17:25:37.359Z,10.10
2019-02-15T17:28:04.024Z,21.63
2019-02-15T17:30:30.599Z,30.00
2019-02-15T17:32:56.979Z,20.20
2019-02-15T17:35:23.478Z,18.30
2019-02-15T17:37:49.713Z,9.27
2019-02-15T17:40:16.053Z,11.73
2019-02-15T17:42:42.447Z,14.10
2019-02-15T17:45:09.991Z,12.40
2019-02-15T17:47:36.334Z,8.90
2019-02-15T17:50:04.363Z,14.33
2019-02-15T17:52:30.694Z,14.10
2019-02-15T17:54:57.042Z,10.90
2019-02-15T17:57:23.497Z,10.57
2019-02-15T17:59:49.734Z,6.80
2019-02-15T18:02:16.034Z,6.73
2019-02-15T18:04:42.699Z,6.23
2019-02-15T18:07:08.927Z,7.37
2019-02-15T18:09:35.168Z,5.63
2019-02-15T18:12:01.389Z,6.10
2019-02-15T18:14:27.599Z,4.73
2019-02-15T18:16:53.993Z,5.40
2019-02-15T18:19:20.215Z,4.70
2019-02-15T18:21:46.595Z,6.17
2019-02-15T18:24:13.035Z,4.70
2019-02-15T18:26:39.398Z,6.20
2019-02-15T18:29:05.604Z,5.27
2019-02-15T18:31:31.868Z,4.73
2019-02-15T18:33:58.084Z,4.87
2019-02-15T18:36:24.359Z,3.93
2019-02-15T18:38:50.551Z,4.60
2019-02-15T18:41:16.979Z,5.40
2019-02-15T18:43:43.349Z,3.80
2019-02-15T18:46:09.665Z,5.10
2019-02-15T18:48:35.999Z,7.17
2019-02-15T18:51:02.470Z,5.07
2019-02-15T18:53:28.724Z,4.27
2019-02-15T18:55:54.962Z,7.20
2019-02-15T18:58:21.288Z,4.87
2019-02-15T19:00:47.609Z,9.87
2019-02-15T19:03:13.856Z,13.87
2019-02-15T19:05:40.204Z,10.10
2019-02-15T19:08:06.627Z,11.17
2019-02-15T19:10:32.872Z,11.53
2019-02-15T19:12:59.199Z,9.10
2019-02-15T19:15:25.717Z,11.30
2019-02-15T19:17:52.026Z,11.60
2019-02-15T19:20:18.398Z,8.10
2019-02-15T19:22:44.850Z,9.07
2019-02-15T19:25:12.926Z,6.90
2019-02-15T19:27:39.401Z,10.43
2019-02-15T19:30:10.764Z,6.17
2019-02-15T19:32:37.345Z,8.33
2019-02-15T19:35:05.284Z,6.40
2019-02-15T19:37:31.616Z,4.10
2019-02-15T19:39:58.217Z,5.10
2019-02-15T19:42:24.677Z,7.13
2019-02-15T19:44:51.218Z,6.70
2019-02-15T19:47:17.649Z,8.90
2019-02-15T19:49:43.921Z,9.80
2019-02-15T19:52:10.255Z,7.87
2019-02-15T19:54:36.712Z,8.27
2019-02-15T19:57:02.917Z,7.80
2019-02-15T19:59:29.211Z,7.47
2019-02-15T20:01:55.470Z,7.50
2019-02-15T20:04:22.008Z,8.23
2019-02-15T20:06:48.236Z,10.70
2019-02-15T20:09:14.609Z,20.67
2019-02-15T20:11:40.840Z,12.23
2019-02-15T20:14:07.055Z,5.90
2019-02-15T20:16:33.301Z,6.97
2019-02-15T20:18:59.545Z,6.57
2019-02-15T20:21:25.801Z,5.20
2019-02-15T20:23:52.093Z,8.57
2019-02-15T20:26:18.528Z,7.17
2019-02-15T20:28:44.740Z,8.20
2019-02-15T20:31:10.980Z,7.00
2019-02-15T20:33:37.301Z,4.97
2019-02-15T20:36:03.620Z,4.77
2019-02-15T20:38:30.142Z,8.53
2019-02-15T20:40:56.363Z,5.07
2019-02-15T20:43:22.612Z,4.40
2019-02-15T20:45:48.937Z,4.30
2019-02-15T20:48:15.409Z,4.63
2019-02-15T20:50:41.737Z,5.03
2019-02-15T20:53:08.781Z,6.30
2019-02-15T20:55:35.108Z,3.30
2019-02-15T20:58:01.609Z,7.30
2019-02-15T21:00:28.516Z,8.20
2019-02-15T21:02:54.849Z,6.20
2019-02-15T21:05:21.119Z,4.40
2019-02-15T21:07:47.514Z,6.27
2019-02-15T21:10:13.987Z,7.57
2019-02-15T21:12:40.295Z,8.30
2019-02-15T21:15:09.060Z,8.00
2019-02-15T21:17:37.809Z,6.80
2019-02-15T21:20:08.396Z,9.93
2019-02-15T21:22:35.311Z,7.10
2019-02-15T21:25:03.891Z,6.20
2019-02-15T21:27:30.487Z,5.73
2019-02-15T21:29:57.365Z,5.70
2019-02-15T21:32:23.912Z,6.43
2019-02-15T21:34:50.420Z,7.50
2019-02-15T21:37:16.750Z,5.70
2019-02-15T21:39:43.014Z,7.00
2019-02-15T21:42:09.318Z,6.80
2019-02-15T21:44:35.837Z,8.03
2019-02-15T21:47:02.080Z,6.20
2019-02-15T21:49:28.406Z,4.80
2019-02-15T21:51:54.728Z,5.53
2019-02-15T21:54:20.987Z,6.70
2019-02-15T21:56:47.202Z,6.03
2019-02-15T21:59:13.441Z,6.83
2019-02-15T22:01:39.683Z,7.03
2019-02-15T22:04:05.896Z,7.50
2019-02-15T22:06:32.340Z,8.70
2019-02-15T22:08:58.557Z,10.13
2019-02-15T22:11:25.019Z,12.97
2019-02-15T22:13:51.293Z,13.70
2019-02-15T22:16:17.506Z,14.63
2019-02-15T22:18:43.867Z,14.00
2019-02-15T22:21:10.266Z,16.23
2019-02-15T22:23:36.557Z,18.93
2019-02-15T22:26:02.755Z,16.03
2019-02-15T22:28:29.015Z,16.20
2019-02-15T22:30:55.238Z,11.33
2019-02-15T22:33:21.576Z,11.77
2019-02-15T22:35:48.073Z,9.67
2019-02-15T22:38:14.305Z,10.77
2019-02-15T22:40:40.659Z,9.97
2019-02-15T22:43:16.089Z,9.03
2019-02-15T22:45:42.318Z,8.87
2019-02-15T22:48:08.556Z,7.93
2019-02-15T22:50:36.290Z,7.93
2019-02-15T22:53:02.825Z,8.40
2019-02-15T22:55:29.050Z,8.70
2019-02-15T22:57:55.365Z,6.53
2019-02-15T23:00:48.124Z,7.07
2019-02-15T23:03:16.139Z,8.07
2019-02-15T23:05:42.594Z,6.77
2019-02-15T23:08:09.030Z,6.80
2019-02-15T23:10:35.435Z,7.97
2019-02-15T23:13:01.695Z,5.07
2019-02-15T23:15:28.092Z,5.17
2019-02-15T23:17:54.335Z,6.97
2019-02-15T23:20:20.541Z,6.93
2019-02-15T23:22:46.939Z,5.70
2019-02-15T23:25:13.167Z,5.70
2019-02-15T23:27:39.371Z,5.23
2019-02-15T23:30:06.591Z,6.20
2019-02-15T23:32:32.815Z,11.00
2019-02-15T23:34:59.070Z,7.07
2019-02-15T23:37:25.382Z,6.23
2019-02-15T23:39:51.679Z,6.30
2019-02-15T23:42:17.986Z,6.90
2019-02-15T23:44:44.208Z,7.07
2019-02-15T23:47:10.409Z,4.60
2019-02-15T23:49:36.649Z,4.90
2019-02-15T23:52:02.869Z,4.33
2019-02-15T23:54:29.082Z,5.20
2019-02-15T23:56:55.293Z,4.97
2019-02-15T23:59:21.500Z,4.60
